sensor_id;sensor_type;location;lat;lon;timestamp;pressure;altitude;pressure_sealevel;temperature;humidity
60427;BME280;46274;47.168;27.604;2023-04-03T00:02:52;99386.75;;;7.65;80.25
60427;BME280;46274;47.168;27.604;2023-04-03T00:08:55;99384.69;;;7.75;78.96
60427;BME280;46274;47.168;27.604;2023-04-03T00:14:58;99370.78;;;7.55;79.26
60427;BME280;46274;47.168;27.604;2023-04-03T00:21:01;99374.31;;;7.56;79.38
60427;BME280;46274;47.168;27.604;2023-04-03T00:27:05;99357.34;;;7.47;79.54
60427;BME280;46274;47.168;27.604;2023-04-03T00:33:13;99390.31;;;7.57;80.04
60427;BME280;46274;47.168;27.604;2023-04-03T00:39:18;99391.16;;;7.58;79.02
60427;BME280;46274;47.168;27.604;2023-04-03T00:45:34;99365.25;;;7.49;79.03
60427;BME280;46274;47.168;27.604;2023-04-03T00:51:42;99383.00;;;7.27;79.99
60427;BME280;46274;47.168;27.604;2023-04-03T00:57:45;99384.34;;;7.31;79.40
60427;BME280;46274;47.168;27.604;2023-04-03T01:03:50;99329.72;;;6.81;79.77
60427;BME280;46274;47.168;27.604;2023-04-03T01:09:57;99385.53;;;7.12;79.89
60427;BME280;46274;47.168;27.604;2023-04-03T01:16:04;99399.38;;;7.01;79.88
60427;BME280;46274;47.168;27.604;2023-04-03T01:22:17;99403.41;;;7.13;79.17
60427;BME280;46274;47.168;27.604;2023-04-03T01:28:27;99400.03;;;7.19;78.68
60427;BME280;46274;47.168;27.604;2023-04-03T01:34:31;99381.50;;;6.99;78.92
60427;BME280;46274;47.168;27.604;2023-04-03T01:40:33;99386.59;;;6.78;79.24
60427;BME280;46274;47.168;27.604;2023-04-03T01:46:36;99415.03;;;6.97;79.00
60427;BME280;46274;47.168;27.604;2023-04-03T01:52:40;99406.94;;;6.89;78.82
60427;BME280;46274;47.168;27.604;2023-04-03T01:58:43;99411.00;;;6.85;78.80
60427;BME280;46274;47.168;27.604;2023-04-03T02:04:46;99307.88;;;6.19;78.63
60427;BME280;46274;47.168;27.604;2023-04-03T02:10:51;99395.34;;;6.72;78.59
60427;BME280;46274;47.168;27.604;2023-04-03T02:16:54;99429.16;;;6.83;78.40
60427;BME280;46274;47.168;27.604;2023-04-03T02:22:57;99412.19;;;6.74;78.48
60427;BME280;46274;47.168;27.604;2023-04-03T02:28:59;99408.81;;;6.64;78.71
60427;BME280;46274;47.168;27.604;2023-04-03T02:35:02;99386.91;;;6.50;78.33
60427;BME280;46274;47.168;27.604;2023-04-03T02:41:07;99367.09;;;6.35;78.47
60427;BME280;46274;47.168;27.604;2023-04-03T02:47:14;99391.66;;;6.40;78.44
60427;BME280;46274;47.168;27.604;2023-04-03T02:53:16;99385.91;;;6.35;78.05
60427;BME280;46274;47.168;27.604;2023-04-03T02:59:18;99390.97;;;6.38;77.84
60427;BME280;46274;47.168;27.604;2023-04-03T03:05:24;99428.97;;;6.43;77.65
60427;BME280;46274;47.168;27.604;2023-04-03T03:11:26;99383.16;;;6.02;77.98
60427;BME280;46274;47.168;27.604;2023-04-03T03:17:31;99442.44;;;6.51;77.61
60427;BME280;46274;47.168;27.604;2023-04-03T03:23:34;99451.19;;;6.53;77.43
60427;BME280;46274;47.168;27.604;2023-04-03T03:29:37;99421.19;;;6.24;77.31
60427;BME280;46274;47.168;27.604;2023-04-03T03:35:39;99385.09;;;5.92;77.50
60427;BME280;46274;47.168;27.604;2023-04-03T03:41:43;99472.44;;;6.14;77.82
60427;BME280;46274;47.168;27.604;2023-04-03T03:47:46;99463.94;;;6.35;77.06
60427;BME280;46274;47.168;27.604;2023-04-03T03:53:49;99430.88;;;6.08;77.12
60427;BME280;46274;47.168;27.604;2023-04-03T03:59:51;99466.28;;;6.30;76.84
60427;BME280;46274;47.168;27.604;2023-04-03T04:05:59;99421.84;;;6.09;76.37
60427;BME280;46274;47.168;27.604;2023-04-03T04:12:02;99439.16;;;6.15;75.88
60427;BME280;46274;47.168;27.604;2023-04-03T04:18:04;99488.81;;;6.37;75.84
60427;BME280;46274;47.168;27.604;2023-04-03T04:24:10;99491.84;;;6.34;75.60
60427;BME280;46274;47.168;27.604;2023-04-03T04:30:13;99444.97;;;5.94;76.25
60427;BME280;46274;47.168;27.604;2023-04-03T04:36:16;99496.41;;;6.42;75.64
60427;BME280;46274;47.168;27.604;2023-04-03T04:42:19;99408.28;;;5.93;74.85
60427;BME280;46274;47.168;27.604;2023-04-03T04:48:21;99499.28;;;6.40;75.19
60427;BME280;46274;47.168;27.604;2023-04-03T04:54:23;99509.69;;;6.43;74.74
60427;BME280;46274;47.168;27.604;2023-04-03T05:00:29;99505.53;;;6.57;74.94
60427;BME280;46274;47.168;27.604;2023-04-03T05:06:31;99514.75;;;6.54;74.95
60427;BME280;46274;47.168;27.604;2023-04-03T05:12:44;99505.03;;;6.53;74.55
60427;BME280;46274;47.168;27.604;2023-04-03T05:18:47;99514.13;;;6.69;74.21
60427;BME280;46274;47.168;27.604;2023-04-03T05:24:52;99518.19;;;6.81;74.45
60427;BME280;46274;47.168;27.604;2023-04-03T05:30:56;99381.06;;;5.88;74.54
60427;BME280;46274;47.168;27.604;2023-04-03T05:36:58;99531.16;;;6.77;74.57
60427;BME280;46274;47.168;27.604;2023-04-03T05:43:01;99545.44;;;6.78;73.57
60427;BME280;46274;47.168;27.604;2023-04-03T05:49:05;99498.88;;;6.27;74.03
60427;BME280;46274;47.168;27.604;2023-04-03T05:55:07;99540.25;;;6.76;73.62
60427;BME280;46274;47.168;27.604;2023-04-03T06:01:18;99536.03;;;6.90;72.99
60427;BME280;46274;47.168;27.604;2023-04-03T06:07:24;99552.47;;;6.63;73.08
60427;BME280;46274;47.168;27.604;2023-04-03T06:13:32;99512.09;;;6.71;72.78
60427;BME280;46274;47.168;27.604;2023-04-03T06:19:41;99533.13;;;6.67;72.34
60427;BME280;46274;47.168;27.604;2023-04-03T06:25:46;99547.00;;;6.97;72.65
60427;BME280;46274;47.168;27.604;2023-04-03T06:31:58;99470.00;;;6.45;72.02
60427;BME280;46274;47.168;27.604;2023-04-03T06:38:03;99568.56;;;6.97;73.02
60427;BME280;46274;47.168;27.604;2023-04-03T06:44:11;99568.72;;;7.12;73.01
60427;BME280;46274;47.168;27.604;2023-04-03T06:50:15;99581.53;;;7.18;73.26
60427;BME280;46274;47.168;27.604;2023-04-03T06:56:22;99603.59;;;7.05;74.13
60427;BME280;46274;47.168;27.604;2023-04-03T07:02:26;99610.94;;;6.87;73.33
60427;BME280;46274;47.168;27.604;2023-04-03T07:08:28;99550.69;;;7.04;71.02
60427;BME280;46274;47.168;27.604;2023-04-03T07:14:34;99614.69;;;7.10;70.65
60427;BME280;46274;47.168;27.604;2023-04-03T07:20:38;99593.66;;;7.30;70.21
60427;BME280;46274;47.168;27.604;2023-04-03T07:26:41;99614.22;;;7.48;68.46
60427;BME280;46274;47.168;27.604;2023-04-03T07:32:46;99613.06;;;7.50;66.28
60427;BME280;46274;47.168;27.604;2023-04-03T07:38:49;99621.31;;;7.73;66.43
60427;BME280;46274;47.168;27.604;2023-04-03T07:44:52;99604.31;;;7.56;65.95
60427;BME280;46274;47.168;27.604;2023-04-03T07:51:03;99587.47;;;7.46;66.24
60427;BME280;46274;47.168;27.604;2023-04-03T07:57:10;99635.78;;;7.48;65.98
60427;BME280;46274;47.168;27.604;2023-04-03T08:03:14;99633.09;;;7.39;65.70
60427;BME280;46274;47.168;27.604;2023-04-03T08:09:20;99639.31;;;7.40;67.17
60427;BME280;46274;47.168;27.604;2023-04-03T08:15:27;99664.78;;;7.70;66.14
60427;BME280;46274;47.168;27.604;2023-04-03T08:21:32;99671.69;;;7.89;65.91
60427;BME280;46274;47.168;27.604;2023-04-03T08:27:37;99637.16;;;7.43;66.13
60427;BME280;46274;47.168;27.604;2023-04-03T08:33:45;99688.22;;;7.78;66.95
60427;BME280;46274;47.168;27.604;2023-04-03T08:39:53;99699.50;;;7.90;67.31
60427;BME280;46274;47.168;27.604;2023-04-03T08:45:59;99690.06;;;7.69;66.99
60427;BME280;46274;47.168;27.604;2023-04-03T08:52:15;99710.63;;;7.54;65.84
60427;BME280;46274;47.168;27.604;2023-04-03T08:58:52;99689.69;;;7.39;65.57
60427;BME280;46274;47.168;27.604;2023-04-03T09:04:56;99713.88;;;7.90;65.94
60427;BME280;46274;47.168;27.604;2023-04-03T09:17:33;99734.34;;;7.50;66.94
60427;BME280;46274;47.168;27.604;2023-04-03T09:23:53;99750.50;;;7.42;68.46
60427;BME280;46274;47.168;27.604;2023-04-03T09:29:58;99751.72;;;7.05;68.61
60427;BME280;46274;47.168;27.604;2023-04-03T09:36:03;99762.78;;;7.28;68.43
60427;BME280;46274;47.168;27.604;2023-04-03T09:42:16;99765.03;;;7.15;68.73
60427;BME280;46274;47.168;27.604;2023-04-03T09:48:23;99785.50;;;6.99;70.63
60427;BME280;46274;47.168;27.604;2023-04-03T09:54:36;99800.44;;;6.86;70.88
60427;BME280;46274;47.168;27.604;2023-04-03T10:00:43;99756.09;;;6.72;70.58
60427;BME280;46274;47.168;27.604;2023-04-03T10:07:00;99834.00;;;6.99;70.49
60427;BME280;46274;47.168;27.604;2023-04-03T10:13:13;99844.34;;;7.12;68.35
60427;BME280;46274;47.168;27.604;2023-04-03T10:19:35;99844.59;;;6.93;68.34
60427;BME280;46274;47.168;27.604;2023-04-03T10:51:43;99865.47;;;6.73;68.88
60427;BME280;46274;47.168;27.604;2023-04-03T10:57:49;99858.00;;;6.85;68.09
60427;BME280;46274;47.168;27.604;2023-04-03T11:03:54;99866.91;;;6.41;68.77
60427;BME280;46274;47.168;27.604;2023-04-03T11:16:30;99885.94;;;6.48;68.21
60427;BME280;46274;47.168;27.604;2023-04-03T11:22:51;99824.16;;;6.38;69.26
60427;BME280;46274;47.168;27.604;2023-04-03T11:29:01;99836.63;;;6.03;70.12
60427;BME280;46274;47.168;27.604;2023-04-03T11:35:07;99853.41;;;6.77;68.93
60427;BME280;46274;47.168;27.604;2023-04-03T11:41:12;99847.22;;;6.59;69.62
60427;BME280;46274;47.168;27.604;2023-04-03T11:47:45;99857.97;;;6.59;68.87
60427;BME280;46274;47.168;27.604;2023-04-03T11:53:51;99894.28;;;6.54;69.11
60427;BME280;46274;47.168;27.604;2023-04-03T11:59:56;99899.47;;;6.92;67.94
60427;BME280;46274;47.168;27.604;2023-04-03T12:18:44;99868.69;;;6.94;68.42
60427;BME280;46274;47.168;27.604;2023-04-03T12:24:49;99878.63;;;6.58;67.73
60427;BME280;46274;47.168;27.604;2023-04-03T12:30:53;99845.44;;;6.49;67.61
60427;BME280;46274;47.168;27.604;2023-04-03T12:37:01;99864.38;;;7.10;67.94
60427;BME280;46274;47.168;27.604;2023-04-03T12:49:41;99863.56;;;7.43;67.02
60427;BME280;46274;47.168;27.604;2023-04-03T12:55:47;99853.44;;;6.85;67.20
60427;BME280;46274;47.168;27.604;2023-04-03T13:02:00;99785.03;;;6.70;66.31
60427;BME280;46274;47.168;27.604;2023-04-03T13:08:05;99846.59;;;7.51;65.49
60427;BME280;46274;47.168;27.604;2023-04-03T13:14:24;99849.56;;;7.91;64.64
60427;BME280;46274;47.168;27.604;2023-04-03T13:20:35;99722.81;;;6.81;64.40
60427;BME280;46274;47.168;27.604;2023-04-03T13:26:40;99858.72;;;7.21;65.32
60427;BME280;46274;47.168;27.604;2023-04-03T13:32:45;99854.34;;;6.50;67.61
60427;BME280;46274;47.168;27.604;2023-04-03T13:39:25;99820.16;;;6.68;65.94
60427;BME280;46274;47.168;27.604;2023-04-03T13:45:29;99858.69;;;6.87;64.78
60427;BME280;46274;47.168;27.604;2023-04-03T13:51:32;99864.91;;;6.61;66.22
60427;BME280;46274;47.168;27.604;2023-04-03T13:57:59;99890.56;;;6.55;66.02
60427;BME280;46274;47.168;27.604;2023-04-03T14:04:13;99774.56;;;5.51;67.02
60427;BME280;46274;47.168;27.604;2023-04-03T14:10:16;99879.84;;;6.20;66.33
60427;BME280;46274;47.168;27.604;2023-04-03T14:16:22;99889.81;;;6.09;66.04
60427;BME280;46274;47.168;27.604;2023-04-03T14:22:32;99894.50;;;6.07;66.33
60427;BME280;46274;47.168;27.604;2023-04-03T14:28:36;99900.13;;;5.86;65.87
60427;BME280;46274;47.168;27.604;2023-04-03T14:34:45;99914.00;;;5.82;66.41
60427;BME280;46274;47.168;27.604;2023-04-03T14:40:48;99910.47;;;6.09;66.11
60427;BME280;46274;47.168;27.604;2023-04-03T14:46:52;99919.31;;;6.37;65.57
60427;BME280;46274;47.168;27.604;2023-04-03T14:52:58;99895.97;;;5.92;65.91
60427;BME280;46274;47.168;27.604;2023-04-03T14:59:01;99899.31;;;5.76;66.18
60427;BME280;46274;47.168;27.604;2023-04-03T15:05:07;99961.09;;;5.58;67.37
60427;BME280;46274;47.168;27.604;2023-04-03T15:11:10;99885.78;;;4.93;67.43
60427;BME280;46274;47.168;27.604;2023-04-03T15:17:18;99912.91;;;4.90;68.93
60427;BME280;46274;47.168;27.604;2023-04-03T15:23:21;99936.00;;;5.20;68.53
60427;BME280;46274;47.168;27.604;2023-04-03T15:29:29;99952.84;;;5.13;66.95
60427;BME280;46274;47.168;27.604;2023-04-03T15:35:31;99973.91;;;5.27;66.93
60427;BME280;46274;47.168;27.604;2023-04-03T15:41:37;99996.53;;;5.15;67.12
60427;BME280;46274;47.168;27.604;2023-04-03T15:47:41;99996.97;;;4.91;67.87
60427;BME280;46274;47.168;27.604;2023-04-03T15:53:43;100014.19;;;4.98;68.07
60427;BME280;46274;47.168;27.604;2023-04-03T15:59:45;100024.66;;;4.81;66.98
60427;BME280;46274;47.168;27.604;2023-04-03T16:05:47;100040.47;;;4.75;67.61
60427;BME280;46274;47.168;27.604;2023-04-03T16:11:49;100017.44;;;4.53;67.80
60427;BME280;46274;47.168;27.604;2023-04-03T16:17:52;100059.56;;;4.81;67.48
60427;BME280;46274;47.168;27.604;2023-04-03T16:23:59;100059.09;;;4.67;68.64
60427;BME280;46274;47.168;27.604;2023-04-03T16:30:02;100066.63;;;4.73;68.07
60427;BME280;46274;47.168;27.604;2023-04-03T16:36:06;100068.56;;;4.61;68.17
60427;BME280;46274;47.168;27.604;2023-04-03T16:42:10;100076.44;;;4.43;68.51
60427;BME280;46274;47.168;27.604;2023-04-03T16:48:13;100108.53;;;4.64;67.95
60427;BME280;46274;47.168;27.604;2023-04-03T16:54:17;100059.09;;;4.07;68.11
60427;BME280;46274;47.168;27.604;2023-04-03T17:00:20;100073.25;;;4.19;68.25
60427;BME280;46274;47.168;27.604;2023-04-03T17:06:22;100122.44;;;4.38;69.32
60427;BME280;46274;47.168;27.604;2023-04-03T17:12:26;100156.44;;;4.07;68.56
60427;BME280;46274;47.168;27.604;2023-04-03T17:18:28;99999.81;;;3.39;67.91
60427;BME280;46274;47.168;27.604;2023-04-03T17:24:33;100142.00;;;4.20;67.59
60427;BME280;46274;47.168;27.604;2023-04-03T17:30:36;100174.16;;;4.20;67.82
60427;BME280;46274;47.168;27.604;2023-04-03T17:36:39;100139.44;;;3.87;67.42
60427;BME280;46274;47.168;27.604;2023-04-03T17:42:42;100213.00;;;4.25;67.36
60427;BME280;46274;47.168;27.604;2023-04-03T17:48:45;100211.47;;;4.02;67.55
60427;BME280;46274;47.168;27.604;2023-04-03T17:54:47;100181.69;;;4.05;67.02
60427;BME280;46274;47.168;27.604;2023-04-03T18:00:49;100218.28;;;4.06;67.56
60427;BME280;46274;47.168;27.604;2023-04-03T18:06:54;100057.72;;;2.98;67.70
60427;BME280;46274;47.168;27.604;2023-04-03T18:12:56;100226.69;;;3.80;69.00
60427;BME280;46274;47.168;27.604;2023-04-03T18:18:59;100108.91;;;3.04;67.72
60427;BME280;46274;47.168;27.604;2023-04-03T18:25:21;100230.75;;;3.75;68.69
60427;BME280;46274;47.168;27.604;2023-04-03T18:31:25;100229.25;;;4.03;68.02
60427;BME280;46274;47.168;27.604;2023-04-03T18:37:30;100227.59;;;3.69;68.85
60427;BME280;46274;47.168;27.604;2023-04-03T18:43:36;100220.84;;;3.54;66.97
60427;BME280;46274;47.168;27.604;2023-04-03T18:49:40;100224.00;;;3.80;66.50
60427;BME280;46274;47.168;27.604;2023-04-03T18:55:44;100124.78;;;2.85;66.77
60427;BME280;46274;47.168;27.604;2023-04-03T19:01:47;100230.34;;;3.47;67.03
60427;BME280;46274;47.168;27.604;2023-04-03T19:07:55;100226.88;;;3.24;67.71
60427;BME280;46274;47.168;27.604;2023-04-03T19:14:00;100245.78;;;3.55;67.63
60427;BME280;46274;47.168;27.604;2023-04-03T19:20:16;100265.59;;;3.31;67.82
60427;BME280;46274;47.168;27.604;2023-04-03T19:26:19;100259.28;;;3.21;68.59
60427;BME280;46274;47.168;27.604;2023-04-03T19:32:23;100126.53;;;2.52;67.99
60427;BME280;46274;47.168;27.604;2023-04-03T19:38:25;100225.78;;;3.26;67.99
60427;BME280;46274;47.168;27.604;2023-04-03T19:44:30;100234.94;;;3.13;68.51
60427;BME280;46274;47.168;27.604;2023-04-03T19:50:33;100202.59;;;2.93;69.61
60427;BME280;46274;47.168;27.604;2023-04-03T19:56:35;100206.25;;;3.03;69.07
60427;BME280;46274;47.168;27.604;2023-04-03T20:02:37;100085.84;;;2.49;69.26
60427;BME280;46274;47.168;27.604;2023-04-03T20:08:41;100220.59;;;2.91;69.19
60427;BME280;46274;47.168;27.604;2023-04-03T20:14:44;100211.38;;;2.50;68.03
60427;BME280;46274;47.168;27.604;2023-04-03T20:20:59;100236.44;;;2.60;68.70
60427;BME280;46274;47.168;27.604;2023-04-03T20:27:02;100253.69;;;2.45;69.82
60427;BME280;46274;47.168;27.604;2023-04-03T20:33:04;100249.34;;;2.67;69.51
60427;BME280;46274;47.168;27.604;2023-04-03T20:39:07;100253.19;;;2.29;69.47
60427;BME280;46274;47.168;27.604;2023-04-03T20:45:10;100269.47;;;2.14;70.73
60427;BME280;46274;47.168;27.604;2023-04-03T20:51:18;100273.88;;;2.38;70.17
60427;BME280;46274;47.168;27.604;2023-04-03T20:57:20;100271.22;;;2.60;70.03
60427;BME280;46274;47.168;27.604;2023-04-03T21:03:24;100234.63;;;2.38;70.07
60427;BME280;46274;47.168;27.604;2023-04-03T21:22:12;100261.59;;;2.35;70.56
60427;BME280;46274;47.168;27.604;2023-04-03T21:28:15;100240.06;;;2.14;71.14
60427;BME280;46274;47.168;27.604;2023-04-03T21:34:20;100255.13;;;2.15;70.44
60427;BME280;46274;47.168;27.604;2023-04-03T21:40:23;100254.66;;;2.55;69.57
60427;BME280;46274;47.168;27.604;2023-04-03T21:46:25;100207.97;;;2.26;69.80
60427;BME280;46274;47.168;27.604;2023-04-03T21:52:28;100260.25;;;2.41;69.88
60427;BME280;46274;47.168;27.604;2023-04-03T21:58:31;100204.53;;;2.01;69.48
60427;BME280;46274;47.168;27.604;2023-04-03T22:04:34;100248.28;;;2.11;69.76
60427;BME280;46274;47.168;27.604;2023-04-03T22:10:39;100226.63;;;1.92;69.76
60427;BME280;46274;47.168;27.604;2023-04-03T22:16:42;100237.97;;;1.71;70.02
60427;BME280;46274;47.168;27.604;2023-04-03T22:22:48;100242.50;;;1.82;69.78
60427;BME280;46274;47.168;27.604;2023-04-03T22:28:51;100226.88;;;1.89;70.02
60427;BME280;46274;47.168;27.604;2023-04-03T22:34:53;100104.69;;;1.33;69.66
60427;BME280;46274;47.168;27.604;2023-04-03T22:41:02;100231.75;;;2.06;69.85
60427;BME280;46274;47.168;27.604;2023-04-03T22:47:06;100203.00;;;1.74;69.48
60427;BME280;46274;47.168;27.604;2023-04-03T22:53:09;100195.91;;;1.86;68.86
60427;BME280;46274;47.168;27.604;2023-04-03T22:59:13;100190.00;;;1.70;69.50
60427;BME280;46274;47.168;27.604;2023-04-03T23:05:15;100195.97;;;1.73;70.53
60427;BME280;46274;47.168;27.604;2023-04-03T23:11:19;100120.59;;;1.35;70.99
60427;BME280;46274;47.168;27.604;2023-04-03T23:17:22;100162.34;;;1.82;70.56
60427;BME280;46274;47.168;27.604;2023-04-03T23:23:25;100102.53;;;1.38;70.25
60427;BME280;46274;47.168;27.604;2023-04-03T23:29:27;100175.13;;;1.90;70.08
60427;BME280;46274;47.168;27.604;2023-04-03T23:35:29;100167.69;;;1.71;70.11
60427;BME280;46274;47.168;27.604;2023-04-03T23:41:32;100177.91;;;1.88;70.10
60427;BME280;46274;47.168;27.604;2023-04-03T23:47:34;100111.53;;;1.48;70.46
60427;BME280;46274;47.168;27.604;2023-04-03T23:53:36;100194.25;;;1.72;71.23
60427;BME280;46274;47.168;27.604;2023-04-03T23:59:38;100191.34;;;1.75;70.99
